Cessna Pilot Center

Spirit Aviation is a Cessna Pilot Center (CPC) that is specially selected flight school that represents top-quality, professional flight training. These flight schools are hand-picked by Cessna Aircraft Company.

Each CPC has state-of-the-art training facilities incorporating the only integrated flight-training system available. CPCs also have clean, quiet study areas and classrooms, and new aircraft with strict maintenance requirements and modern components. And, each CPC carries $1 million in aviation insurance to protect you throughout your training.

Cessna Pilot Centers are associated with The Cessna Aircraft Company. Cessna ensures that they maintain the standards that have helped Cessna remain successful for over 75 years.

Cessna requires all CPCs to excel in customer service, with well-trained, professional instructors. They’re able to answer your questions and provide guidance throughout your aviation adventure, from Discovery Flight through buying your first airplane.

For more information about our Cessna Pilot Center and Thomson Flight Training, please contact Spirit Aviation Today!

NOAA Weather

KHQU

Last Updated on Mar 2 2024, 3:10 pm EST

Current Conditions: Overcast

NOAA Icon

Temp: 59°F

Wind: North at 0mph

Humidity: 83%

Dewpoint: 54.1°F

Your 5-Day Forecast at a Glance

KHQU Metar

KHQU 022030Z AUTO 00000KT 10SM OVC011 16/13 A3014 RMK AO2 T01550126